sensor_id;sensor_type;location;lat;lon;timestamp;P1;durP1;ratioP1;P2;durP2;ratioP2
60704;SDS011;46545;38.014;-7.874;2023-03-11T00:01:50;30.55;;;7.30;;
60704;SDS011;46545;38.014;-7.874;2023-03-11T00:03:50;19.05;;;6.45;;
60704;SDS011;46545;38.014;-7.874;2023-03-11T00:05:51;20.63;;;6.05;;
60704;SDS011;46545;38.014;-7.874;2023-03-11T00:07:53;19.50;;;6.28;;
60704;SDS011;46545;38.014;-7.874;2023-03-11T00:09:53;22.77;;;6.55;;
60704;SDS011;46545;38.014;-7.874;2023-03-11T00:11:54;20.65;;;6.25;;
60704;SDS011;46545;38.014;-7.874;2023-03-11T00:13:54;17.63;;;5.22;;
60704;SDS011;46545;38.014;-7.874;2023-03-11T00:15:54;14.48;;;6.35;;
60704;SDS011;46545;38.014;-7.874;2023-03-11T00:17:55;28.85;;;6.65;;
60704;SDS011;46545;38.014;-7.874;2023-03-11T00:19:56;18.75;;;5.50;;
60704;SDS011;46545;38.014;-7.874;2023-03-11T00:21:56;25.70;;;7.70;;
60704;SDS011;46545;38.014;-7.874;2023-03-11T00:23:57;23.10;;;6.35;;
60704;SDS011;46545;38.014;-7.874;2023-03-11T00:26:00;27.13;;;6.38;;
60704;SDS011;46545;38.014;-7.874;2023-03-11T00:28:02;24.58;;;5.93;;
60704;SDS011;46545;38.014;-7.874;2023-03-11T00:30:03;24.92;;;6.40;;
60704;SDS011;46545;38.014;-7.874;2023-03-11T00:32:04;30.45;;;6.22;;
60704;SDS011;46545;38.014;-7.874;2023-03-11T00:34:04;22.77;;;5.63;;
60704;SDS011;46545;38.014;-7.874;2023-03-11T00:36:06;32.75;;;8.40;;
60704;SDS011;46545;38.014;-7.874;2023-03-11T00:38:07;32.17;;;7.63;;
60704;SDS011;46545;38.014;-7.874;2023-03-11T00:40:10;33.35;;;7.90;;
60704;SDS011;46545;38.014;-7.874;2023-03-11T00:42:11;26.67;;;8.05;;
60704;SDS011;46545;38.014;-7.874;2023-03-11T00:44:12;31.58;;;8.65;;
60704;SDS011;46545;38.014;-7.874;2023-03-11T00:46:13;27.33;;;8.77;;
60704;SDS011;46545;38.014;-7.874;2023-03-11T00:48:13;22.80;;;7.72;;
60704;SDS011;46545;38.014;-7.874;2023-03-11T00:50:15;26.08;;;8.60;;
60704;SDS011;46545;38.014;-7.874;2023-03-11T00:52:17;31.70;;;7.88;;
60704;SDS011;46545;38.014;-7.874;2023-03-11T00:54:17;30.38;;;8.50;;
60704;SDS011;46545;38.014;-7.874;2023-03-11T00:56:18;23.55;;;6.55;;
60704;SDS011;46545;38.014;-7.874;2023-03-11T00:58:18;30.30;;;7.57;;
60704;SDS011;46545;38.014;-7.874;2023-03-11T01:00:27;36.58;;;8.38;;
60704;SDS011;46545;38.014;-7.874;2023-03-11T01:02:29;34.92;;;7.65;;
60704;SDS011;46545;38.014;-7.874;2023-03-11T01:04:29;25.95;;;7.75;;
60704;SDS011;46545;38.014;-7.874;2023-03-11T01:06:30;41.40;;;8.60;;
60704;SDS011;46545;38.014;-7.874;2023-03-11T01:08:30;33.72;;;8.40;;
60704;SDS011;46545;38.014;-7.874;2023-03-11T01:10:31;35.50;;;7.28;;
60704;SDS011;46545;38.014;-7.874;2023-03-11T01:12:32;33.13;;;9.00;;
60704;SDS011;46545;38.014;-7.874;2023-03-11T01:14:35;27.17;;;8.23;;
60704;SDS011;46545;38.014;-7.874;2023-03-11T01:16:35;30.27;;;8.27;;
60704;SDS011;46545;38.014;-7.874;2023-03-11T01:18:35;34.28;;;7.65;;
60704;SDS011;46545;38.014;-7.874;2023-03-11T01:20:36;39.60;;;9.13;;
60704;SDS011;46545;38.014;-7.874;2023-03-11T01:22:38;40.75;;;9.25;;
60704;SDS011;46545;38.014;-7.874;2023-03-11T01:24:38;28.95;;;8.63;;
60704;SDS011;46545;38.014;-7.874;2023-03-11T01:26:39;38.42;;;10.23;;
60704;SDS011;46545;38.014;-7.874;2023-03-11T01:28:39;25.45;;;7.90;;
60704;SDS011;46545;38.014;-7.874;2023-03-11T01:30:40;29.20;;;8.85;;
60704;SDS011;46545;38.014;-7.874;2023-03-11T01:32:41;31.67;;;9.05;;
60704;SDS011;46545;38.014;-7.874;2023-03-11T01:34:41;39.97;;;8.55;;
60704;SDS011;46545;38.014;-7.874;2023-03-11T01:36:42;28.90;;;9.13;;
60704;SDS011;46545;38.014;-7.874;2023-03-11T01:38:42;36.38;;;10.55;;
60704;SDS011;46545;38.014;-7.874;2023-03-11T01:40:44;31.73;;;10.98;;
60704;SDS011;46545;38.014;-7.874;2023-03-11T01:44:47;39.33;;;13.02;;
60704;SDS011;46545;38.014;-7.874;2023-03-11T01:48:55;36.83;;;12.27;;
60704;SDS011;46545;38.014;-7.874;2023-03-11T01:50:56;42.25;;;13.95;;
60704;SDS011;46545;38.014;-7.874;2023-03-11T01:52:57;45.55;;;15.25;;
60704;SDS011;46545;38.014;-7.874;2023-03-11T01:54:58;47.67;;;17.25;;
60704;SDS011;46545;38.014;-7.874;2023-03-11T01:56:58;40.35;;;16.50;;
60704;SDS011;46545;38.014;-7.874;2023-03-11T01:59:02;51.95;;;18.30;;
60704;SDS011;46545;38.014;-7.874;2023-03-11T02:01:03;47.15;;;18.90;;
60704;SDS011;46545;38.014;-7.874;2023-03-11T02:03:13;57.55;;;20.00;;
60704;SDS011;46545;38.014;-7.874;2023-03-11T02:05:17;55.83;;;22.75;;
60704;SDS011;46545;38.014;-7.874;2023-03-11T02:07:18;44.42;;;19.50;;
60704;SDS011;46545;38.014;-7.874;2023-03-11T02:09:21;49.67;;;19.00;;
60704;SDS011;46545;38.014;-7.874;2023-03-11T02:11:25;52.83;;;20.90;;
60704;SDS011;46545;38.014;-7.874;2023-03-11T02:13:26;54.78;;;20.58;;
60704;SDS011;46545;38.014;-7.874;2023-03-11T02:15:27;54.85;;;20.85;;
60704;SDS011;46545;38.014;-7.874;2023-03-11T02:17:27;50.78;;;20.85;;
60704;SDS011;46545;38.014;-7.874;2023-03-11T02:19:37;50.17;;;21.10;;
60704;SDS011;46545;38.014;-7.874;2023-03-11T02:21:41;46.03;;;20.08;;
60704;SDS011;46545;38.014;-7.874;2023-03-11T02:23:46;44.90;;;19.52;;
60704;SDS011;46545;38.014;-7.874;2023-03-11T02:26:00;61.35;;;22.08;;
60704;SDS011;46545;38.014;-7.874;2023-03-11T02:28:04;42.60;;;16.45;;
60704;SDS011;46545;38.014;-7.874;2023-03-11T02:30:10;50.40;;;18.27;;
60704;SDS011;46545;38.014;-7.874;2023-03-11T02:32:12;45.42;;;17.48;;
60704;SDS011;46545;38.014;-7.874;2023-03-11T02:34:32;47.28;;;16.70;;
60704;SDS011;46545;38.014;-7.874;2023-03-11T02:36:36;40.00;;;15.57;;
60704;SDS011;46545;38.014;-7.874;2023-03-11T02:42:38;40.75;;;14.27;;
60704;SDS011;46545;38.014;-7.874;2023-03-11T02:44:39;37.72;;;12.70;;
60704;SDS011;46545;38.014;-7.874;2023-03-11T02:46:40;34.60;;;15.65;;
60704;SDS011;46545;38.014;-7.874;2023-03-11T02:48:43;43.00;;;12.48;;
60704;SDS011;46545;38.014;-7.874;2023-03-11T02:50:46;30.92;;;12.40;;
60704;SDS011;46545;38.014;-7.874;2023-03-11T02:52:48;32.30;;;13.80;;
60704;SDS011;46545;38.014;-7.874;2023-03-11T02:54:48;43.90;;;11.13;;
60704;SDS011;46545;38.014;-7.874;2023-03-11T02:56:49;38.45;;;11.05;;
60704;SDS011;46545;38.014;-7.874;2023-03-11T02:58:49;47.40;;;11.55;;
60704;SDS011;46545;38.014;-7.874;2023-03-11T03:00:50;43.97;;;11.85;;
60704;SDS011;46545;38.014;-7.874;2023-03-11T03:02:52;42.80;;;12.18;;
60704;SDS011;46545;38.014;-7.874;2023-03-11T03:04:54;37.78;;;10.50;;
60704;SDS011;46545;38.014;-7.874;2023-03-11T03:06:55;31.90;;;10.73;;
60704;SDS011;46545;38.014;-7.874;2023-03-11T03:08:55;34.78;;;9.95;;
60704;SDS011;46545;38.014;-7.874;2023-03-11T03:10:56;36.10;;;9.30;;
60704;SDS011;46545;38.014;-7.874;2023-03-11T03:12:57;26.42;;;9.35;;
60704;SDS011;46545;38.014;-7.874;2023-03-11T03:14:58;33.15;;;11.60;;
60704;SDS011;46545;38.014;-7.874;2023-03-11T03:16:59;30.42;;;10.40;;
60704;SDS011;46545;38.014;-7.874;2023-03-11T03:18:59;37.63;;;10.10;;
60704;SDS011;46545;38.014;-7.874;2023-03-11T03:21:00;28.52;;;9.20;;
60704;SDS011;46545;38.014;-7.874;2023-03-11T03:23:01;25.25;;;9.30;;
60704;SDS011;46545;38.014;-7.874;2023-03-11T03:25:04;33.50;;;10.60;;
60704;SDS011;46545;38.014;-7.874;2023-03-11T03:27:05;25.40;;;10.32;;
60704;SDS011;46545;38.014;-7.874;2023-03-11T03:29:06;20.15;;;8.30;;
60704;SDS011;46545;38.014;-7.874;2023-03-11T03:31:07;28.00;;;10.15;;
60704;SDS011;46545;38.014;-7.874;2023-03-11T03:33:11;22.98;;;8.63;;
60704;SDS011;46545;38.014;-7.874;2023-03-11T03:35:11;19.77;;;8.43;;
60704;SDS011;46545;38.014;-7.874;2023-03-11T03:37:35;18.83;;;8.27;;
60704;SDS011;46545;38.014;-7.874;2023-03-11T03:39:36;24.00;;;9.30;;
60704;SDS011;46545;38.014;-7.874;2023-03-11T03:41:36;26.92;;;9.40;;
60704;SDS011;46545;38.014;-7.874;2023-03-11T03:43:38;17.38;;;8.95;;
60704;SDS011;46545;38.014;-7.874;2023-03-11T03:45:39;22.80;;;8.18;;
60704;SDS011;46545;38.014;-7.874;2023-03-11T03:47:40;28.10;;;8.40;;
60704;SDS011;46545;38.014;-7.874;2023-03-11T03:49:40;18.58;;;8.32;;
60704;SDS011;46545;38.014;-7.874;2023-03-11T03:51:41;16.27;;;8.10;;
60704;SDS011;46545;38.014;-7.874;2023-03-11T03:54:04;17.15;;;7.03;;
60704;SDS011;46545;38.014;-7.874;2023-03-11T03:56:06;15.55;;;7.40;;
60704;SDS011;46545;38.014;-7.874;2023-03-11T03:58:08;19.40;;;7.30;;
60704;SDS011;46545;38.014;-7.874;2023-03-11T04:00:09;21.02;;;8.18;;
60704;SDS011;46545;38.014;-7.874;2023-03-11T04:02:18;24.65;;;8.50;;
60704;SDS011;46545;38.014;-7.874;2023-03-11T04:04:19;20.15;;;7.97;;
60704;SDS011;46545;38.014;-7.874;2023-03-11T04:06:21;20.17;;;7.63;;
60704;SDS011;46545;38.014;-7.874;2023-03-11T04:08:26;20.02;;;7.30;;
60704;SDS011;46545;38.014;-7.874;2023-03-11T04:10:26;16.45;;;6.22;;
60704;SDS011;46545;38.014;-7.874;2023-03-11T04:12:27;15.77;;;6.70;;
60704;SDS011;46545;38.014;-7.874;2023-03-11T04:14:29;17.05;;;7.03;;
60704;SDS011;46545;38.014;-7.874;2023-03-11T04:16:33;15.52;;;5.88;;
60704;SDS011;46545;38.014;-7.874;2023-03-11T04:18:38;15.45;;;5.95;;
60704;SDS011;46545;38.014;-7.874;2023-03-11T04:20:40;16.73;;;5.97;;
60704;SDS011;46545;38.014;-7.874;2023-03-11T04:22:41;20.98;;;6.78;;
60704;SDS011;46545;38.014;-7.874;2023-03-11T04:24:41;13.98;;;6.28;;
60704;SDS011;46545;38.014;-7.874;2023-03-11T04:26:42;12.13;;;5.35;;
60704;SDS011;46545;38.014;-7.874;2023-03-11T04:28:47;14.80;;;5.35;;
60704;SDS011;46545;38.014;-7.874;2023-03-11T04:30:48;11.00;;;5.63;;
60704;SDS011;46545;38.014;-7.874;2023-03-11T04:32:48;11.13;;;6.13;;
60704;SDS011;46545;38.014;-7.874;2023-03-11T04:34:50;15.52;;;6.18;;
60704;SDS011;46545;38.014;-7.874;2023-03-11T04:36:51;12.93;;;6.03;;
60704;SDS011;46545;38.014;-7.874;2023-03-11T04:38:54;14.18;;;7.03;;
60704;SDS011;46545;38.014;-7.874;2023-03-11T04:41:03;10.52;;;5.82;;
60704;SDS011;46545;38.014;-7.874;2023-03-11T04:43:04;16.13;;;5.80;;
60704;SDS011;46545;38.014;-7.874;2023-03-11T04:45:05;11.90;;;5.13;;
60704;SDS011;46545;38.014;-7.874;2023-03-11T04:47:06;9.68;;;5.47;;
60704;SDS011;46545;38.014;-7.874;2023-03-11T04:49:07;12.18;;;5.57;;
60704;SDS011;46545;38.014;-7.874;2023-03-11T04:51:09;10.15;;;5.18;;
60704;SDS011;46545;38.014;-7.874;2023-03-11T04:53:10;15.25;;;5.45;;
60704;SDS011;46545;38.014;-7.874;2023-03-11T04:55:11;9.70;;;5.40;;
60704;SDS011;46545;38.014;-7.874;2023-03-11T04:57:13;9.68;;;5.28;;
60704;SDS011;46545;38.014;-7.874;2023-03-11T04:59:17;12.75;;;4.78;;
60704;SDS011;46545;38.014;-7.874;2023-03-11T05:01:18;12.43;;;4.85;;
60704;SDS011;46545;38.014;-7.874;2023-03-11T05:03:19;9.35;;;5.30;;
60704;SDS011;46545;38.014;-7.874;2023-03-11T05:05:20;12.00;;;4.97;;
60704;SDS011;46545;38.014;-7.874;2023-03-11T05:07:21;8.57;;;4.85;;
60704;SDS011;46545;38.014;-7.874;2023-03-11T05:09:22;10.05;;;4.70;;
60704;SDS011;46545;38.014;-7.874;2023-03-11T05:11:22;13.85;;;5.55;;
60704;SDS011;46545;38.014;-7.874;2023-03-11T05:13:23;11.32;;;5.35;;
60704;SDS011;46545;38.014;-7.874;2023-03-11T05:15:26;7.03;;;4.68;;
60704;SDS011;46545;38.014;-7.874;2023-03-11T05:17:28;11.38;;;5.20;;
60704;SDS011;46545;38.014;-7.874;2023-03-11T05:19:29;19.73;;;5.22;;
60704;SDS011;46545;38.014;-7.874;2023-03-11T05:21:30;10.85;;;5.25;;
60704;SDS011;46545;38.014;-7.874;2023-03-11T05:23:30;9.65;;;4.63;;
60704;SDS011;46545;38.014;-7.874;2023-03-11T05:25:31;8.82;;;4.90;;
60704;SDS011;46545;38.014;-7.874;2023-03-11T05:27:32;10.43;;;5.47;;
60704;SDS011;46545;38.014;-7.874;2023-03-11T05:29:32;9.68;;;4.22;;
60704;SDS011;46545;38.014;-7.874;2023-03-11T05:31:33;13.65;;;4.93;;
60704;SDS011;46545;38.014;-7.874;2023-03-11T05:33:36;9.45;;;4.95;;
60704;SDS011;46545;38.014;-7.874;2023-03-11T05:35:38;9.18;;;4.43;;
60704;SDS011;46545;38.014;-7.874;2023-03-11T05:37:39;11.23;;;4.80;;
60704;SDS011;46545;38.014;-7.874;2023-03-11T05:39:40;19.17;;;5.15;;
60704;SDS011;46545;38.014;-7.874;2023-03-11T05:41:41;11.00;;;4.72;;
60704;SDS011;46545;38.014;-7.874;2023-03-11T05:43:42;20.33;;;4.72;;
60704;SDS011;46545;38.014;-7.874;2023-03-11T05:45:43;16.23;;;5.20;;
60704;SDS011;46545;38.014;-7.874;2023-03-11T05:47:44;6.20;;;4.38;;
60704;SDS011;46545;38.014;-7.874;2023-03-11T05:49:47;10.65;;;4.95;;
60704;SDS011;46545;38.014;-7.874;2023-03-11T05:51:49;9.45;;;5.15;;
60704;SDS011;46545;38.014;-7.874;2023-03-11T05:53:50;11.02;;;5.63;;
60704;SDS011;46545;38.014;-7.874;2023-03-11T05:55:59;10.35;;;5.68;;
60704;SDS011;46545;38.014;-7.874;2023-03-11T05:58:00;9.88;;;5.32;;
60704;SDS011;46545;38.014;-7.874;2023-03-11T06:00:02;10.00;;;5.45;;
60704;SDS011;46545;38.014;-7.874;2023-03-11T06:02:13;9.32;;;4.88;;
60704;SDS011;46545;38.014;-7.874;2023-03-11T06:04:14;15.55;;;5.38;;
60704;SDS011;46545;38.014;-7.874;2023-03-11T06:06:16;12.27;;;5.13;;
60704;SDS011;46545;38.014;-7.874;2023-03-11T06:08:17;13.60;;;5.68;;
60704;SDS011;46545;38.014;-7.874;2023-03-11T06:10:18;11.82;;;4.53;;
60704;SDS011;46545;38.014;-7.874;2023-03-11T06:12:19;30.85;;;4.82;;
60704;SDS011;46545;38.014;-7.874;2023-03-11T06:14:41;40.72;;;5.85;;
60704;SDS011;46545;38.014;-7.874;2023-03-11T06:16:41;23.85;;;4.75;;
60704;SDS011;46545;38.014;-7.874;2023-03-11T06:18:43;20.80;;;5.88;;
60704;SDS011;46545;38.014;-7.874;2023-03-11T06:20:43;11.27;;;5.07;;
60704;SDS011;46545;38.014;-7.874;2023-03-11T06:22:47;17.75;;;5.53;;
60704;SDS011;46545;38.014;-7.874;2023-03-11T06:24:47;20.63;;;4.68;;
60704;SDS011;46545;38.014;-7.874;2023-03-11T06:26:51;50.88;;;6.22;;
60704;SDS011;46545;38.014;-7.874;2023-03-11T06:28:53;19.80;;;5.50;;
60704;SDS011;46545;38.014;-7.874;2023-03-11T06:30:54;14.40;;;5.18;;
60704;SDS011;46545;38.014;-7.874;2023-03-11T06:32:56;35.60;;;6.93;;
60704;SDS011;46545;38.014;-7.874;2023-03-11T06:34:57;18.75;;;4.95;;
60704;SDS011;46545;38.014;-7.874;2023-03-11T06:36:57;28.00;;;5.60;;
60704;SDS011;46545;38.014;-7.874;2023-03-11T06:38:59;13.82;;;5.75;;
60704;SDS011;46545;38.014;-7.874;2023-03-11T06:41:01;14.63;;;4.82;;
60704;SDS011;46545;38.014;-7.874;2023-03-11T06:43:04;27.90;;;5.30;;
60704;SDS011;46545;38.014;-7.874;2023-03-11T06:45:07;17.73;;;5.80;;
60704;SDS011;46545;38.014;-7.874;2023-03-11T06:47:08;16.35;;;4.72;;
60704;SDS011;46545;38.014;-7.874;2023-03-11T06:49:09;24.02;;;4.93;;
60704;SDS011;46545;38.014;-7.874;2023-03-11T06:51:11;13.02;;;5.05;;
60704;SDS011;46545;38.014;-7.874;2023-03-11T06:53:11;26.88;;;5.65;;
60704;SDS011;46545;38.014;-7.874;2023-03-11T06:55:12;26.00;;;5.40;;
60704;SDS011;46545;38.014;-7.874;2023-03-11T06:57:13;22.92;;;5.63;;
60704;SDS011;46545;38.014;-7.874;2023-03-11T06:59:14;12.48;;;4.47;;
60704;SDS011;46545;38.014;-7.874;2023-03-11T07:01:19;15.30;;;4.20;;
60704;SDS011;46545;38.014;-7.874;2023-03-11T07:03:20;26.98;;;6.57;;
60704;SDS011;46545;38.014;-7.874;2023-03-11T07:05:21;18.17;;;4.50;;
60704;SDS011;46545;38.014;-7.874;2023-03-11T07:07:23;11.63;;;3.97;;
60704;SDS011;46545;38.014;-7.874;2023-03-11T07:09:24;14.68;;;4.53;;
60704;SDS011;46545;38.014;-7.874;2023-03-11T07:11:27;13.55;;;4.63;;
60704;SDS011;46545;38.014;-7.874;2023-03-11T07:13:34;15.30;;;4.55;;
60704;SDS011;46545;38.014;-7.874;2023-03-11T07:15:35;14.70;;;5.60;;
60704;SDS011;46545;38.014;-7.874;2023-03-11T07:17:35;16.45;;;4.35;;
60704;SDS011;46545;38.014;-7.874;2023-03-11T07:19:36;9.75;;;5.03;;
60704;SDS011;46545;38.014;-7.874;2023-03-11T07:21:37;10.25;;;4.85;;
60704;SDS011;46545;38.014;-7.874;2023-03-11T07:23:38;12.93;;;5.90;;
60704;SDS011;46545;38.014;-7.874;2023-03-11T07:25:44;15.20;;;6.88;;
60704;SDS011;46545;38.014;-7.874;2023-03-11T07:27:44;13.60;;;6.18;;
60704;SDS011;46545;38.014;-7.874;2023-03-11T07:29:45;18.70;;;7.75;;
60704;SDS011;46545;38.014;-7.874;2023-03-11T07:31:45;33.78;;;23.05;;
60704;SDS011;46545;38.014;-7.874;2023-03-11T07:33:46;35.97;;;12.38;;
60704;SDS011;46545;38.014;-7.874;2023-03-11T07:35:46;25.88;;;10.48;;
60704;SDS011;46545;38.014;-7.874;2023-03-11T07:37:48;29.10;;;12.05;;
60704;SDS011;46545;38.014;-7.874;2023-03-11T07:39:48;37.42;;;16.25;;
60704;SDS011;46545;38.014;-7.874;2023-03-11T07:41:49;41.80;;;18.52;;
60704;SDS011;46545;38.014;-7.874;2023-03-11T07:43:52;40.75;;;18.05;;
60704;SDS011;46545;38.014;-7.874;2023-03-11T07:46:00;44.25;;;19.00;;
60704;SDS011;46545;38.014;-7.874;2023-03-11T07:48:01;38.58;;;19.00;;
60704;SDS011;46545;38.014;-7.874;2023-03-11T07:50:01;33.00;;;16.75;;
60704;SDS011;46545;38.014;-7.874;2023-03-11T07:52:02;29.30;;;15.10;;
60704;SDS011;46545;38.014;-7.874;2023-03-11T07:54:03;26.58;;;14.57;;
60704;SDS011;46545;38.014;-7.874;2023-03-11T07:56:03;32.88;;;12.02;;
60704;SDS011;46545;38.014;-7.874;2023-03-11T07:58:04;20.23;;;11.73;;
60704;SDS011;46545;38.014;-7.874;2023-03-11T08:00:05;18.52;;;11.75;;
60704;SDS011;46545;38.014;-7.874;2023-03-11T08:02:11;21.23;;;12.00;;
60704;SDS011;46545;38.014;-7.874;2023-03-11T08:04:12;20.90;;;12.40;;
60704;SDS011;46545;38.014;-7.874;2023-03-11T08:06:25;20.02;;;11.40;;
60704;SDS011;46545;38.014;-7.874;2023-03-11T08:08:26;19.58;;;10.95;;
60704;SDS011;46545;38.014;-7.874;2023-03-11T08:10:26;24.13;;;12.02;;
60704;SDS011;46545;38.014;-7.874;2023-03-11T08:12:27;23.38;;;13.73;;
60704;SDS011;46545;38.014;-7.874;2023-03-11T08:14:27;20.27;;;11.95;;
60704;SDS011;46545;38.014;-7.874;2023-03-11T08:16:28;29.02;;;18.98;;
60704;SDS011;46545;38.014;-7.874;2023-03-11T08:18:28;26.98;;;14.32;;
60704;SDS011;46545;38.014;-7.874;2023-03-11T08:20:30;23.98;;;13.85;;
60704;SDS011;46545;38.014;-7.874;2023-03-11T08:22:30;26.33;;;13.57;;
60704;SDS011;46545;38.014;-7.874;2023-03-11T08:24:30;24.70;;;13.40;;
60704;SDS011;46545;38.014;-7.874;2023-03-11T08:26:31;25.05;;;13.80;;
60704;SDS011;46545;38.014;-7.874;2023-03-11T08:28:31;24.45;;;14.05;;
60704;SDS011;46545;38.014;-7.874;2023-03-11T08:30:32;23.27;;;13.57;;
60704;SDS011;46545;38.014;-7.874;2023-03-11T08:32:33;22.00;;;12.60;;
60704;SDS011;46545;38.014;-7.874;2023-03-11T08:34:33;21.60;;;12.98;;
60704;SDS011;46545;38.014;-7.874;2023-03-11T08:36:34;20.30;;;11.90;;
60704;SDS011;46545;38.014;-7.874;2023-03-11T08:38:35;17.73;;;10.32;;
60704;SDS011;46545;38.014;-7.874;2023-03-11T08:40:35;19.73;;;10.02;;
60704;SDS011;46545;38.014;-7.874;2023-03-11T08:42:36;14.82;;;9.80;;
60704;SDS011;46545;38.014;-7.874;2023-03-11T08:44:36;14.52;;;9.02;;
60704;SDS011;46545;38.014;-7.874;2023-03-11T08:46:37;13.98;;;8.18;;
60704;SDS011;46545;38.014;-7.874;2023-03-11T08:48:37;13.68;;;7.82;;
60704;SDS011;46545;38.014;-7.874;2023-03-11T08:50:39;11.48;;;7.20;;
60704;SDS011;46545;38.014;-7.874;2023-03-11T08:52:40;12.25;;;7.03;;
60704;SDS011;46545;38.014;-7.874;2023-03-11T08:54:41;11.95;;;6.80;;
60704;SDS011;46545;38.014;-7.874;2023-03-11T08:56:41;12.35;;;7.38;;
60704;SDS011;46545;38.014;-7.874;2023-03-11T08:58:42;11.55;;;6.78;;
60704;SDS011;46545;38.014;-7.874;2023-03-11T09:00:42;10.60;;;6.88;;
60704;SDS011;46545;38.014;-7.874;2023-03-11T09:02:43;10.13;;;6.40;;
60704;SDS011;46545;38.014;-7.874;2023-03-11T09:04:43;9.70;;;6.03;;
60704;SDS011;46545;38.014;-7.874;2023-03-11T09:06:44;8.95;;;6.38;;
60704;SDS011;46545;38.014;-7.874;2023-03-11T09:08:44;11.38;;;7.00;;
60704;SDS011;46545;38.014;-7.874;2023-03-11T09:10:45;10.70;;;6.18;;
60704;SDS011;46545;38.014;-7.874;2023-03-11T09:12:45;9.23;;;5.72;;
60704;SDS011;46545;38.014;-7.874;2023-03-11T09:14:46;8.77;;;6.03;;
60704;SDS011;46545;38.014;-7.874;2023-03-11T09:16:46;8.20;;;5.40;;
60704;SDS011;46545;38.014;-7.874;2023-03-11T09:18:47;7.50;;;4.82;;
60704;SDS011;46545;38.014;-7.874;2023-03-11T09:20:47;7.43;;;5.47;;
60704;SDS011;46545;38.014;-7.874;2023-03-11T09:22:48;6.50;;;4.70;;
60704;SDS011;46545;38.014;-7.874;2023-03-11T09:24:48;5.82;;;4.22;;
60704;SDS011;46545;38.014;-7.874;2023-03-11T09:26:49;7.05;;;4.60;;
60704;SDS011;46545;38.014;-7.874;2023-03-11T09:28:49;6.22;;;4.38;;
60704;SDS011;46545;38.014;-7.874;2023-03-11T09:30:50;6.22;;;3.63;;
60704;SDS011;46545;38.014;-7.874;2023-03-11T09:32:50;5.82;;;4.05;;
60704;SDS011;46545;38.014;-7.874;2023-03-11T09:34:50;4.68;;;3.67;;
60704;SDS011;46545;38.014;-7.874;2023-03-11T09:36:51;5.32;;;3.38;;
60704;SDS011;46545;38.014;-7.874;2023-03-11T09:38:51;5.45;;;3.65;;
60704;SDS011;46545;38.014;-7.874;2023-03-11T09:40:56;4.93;;;3.53;;
60704;SDS011;46545;38.014;-7.874;2023-03-11T09:45:23;9.60;;;3.60;;
60704;SDS011;46545;38.014;-7.874;2023-03-11T09:49:38;4.32;;;2.92;;
60704;SDS011;46545;38.014;-7.874;2023-03-11T09:51:45;6.88;;;3.78;;
60704;SDS011;46545;38.014;-7.874;2023-03-11T09:53:48;5.20;;;2.88;;
60704;SDS011;46545;38.014;-7.874;2023-03-11T09:57:50;9.02;;;3.35;;
60704;SDS011;46545;38.014;-7.874;2023-03-11T09:59:52;8.60;;;3.97;;
60704;SDS011;46545;38.014;-7.874;2023-03-11T10:01:53;5.82;;;3.55;;
60704;SDS011;46545;38.014;-7.874;2023-03-11T10:03:54;9.05;;;4.75;;
60704;SDS011;46545;38.014;-7.874;2023-03-11T10:06:03;9.55;;;4.10;;
60704;SDS011;46545;38.014;-7.874;2023-03-11T10:08:50;8.98;;;4.28;;
60704;SDS011;46545;38.014;-7.874;2023-03-11T10:10:30;11.93;;;4.80;;
60704;SDS011;46545;38.014;-7.874;2023-03-11T10:12:39;15.35;;;4.82;;
60704;SDS011;46545;38.014;-7.874;2023-03-11T10:19:23;19.27;;;7.60;;
60704;SDS011;46545;38.014;-7.874;2023-03-11T10:27:49;20.77;;;9.32;;
60704;SDS011;46545;38.014;-7.874;2023-03-11T10:29:53;23.67;;;9.88;;
60704;SDS011;46545;38.014;-7.874;2023-03-11T10:31:59;23.42;;;9.65;;
60704;SDS011;46545;38.014;-7.874;2023-03-11T10:34:01;18.42;;;7.93;;
60704;SDS011;46545;38.014;-7.874;2023-03-11T10:36:04;16.15;;;8.05;;
60704;SDS011;46545;38.014;-7.874;2023-03-11T10:40:28;20.83;;;7.05;;
60704;SDS011;46545;38.014;-7.874;2023-03-11T10:42:29;11.27;;;5.65;;
60704;SDS011;46545;38.014;-7.874;2023-03-11T10:44:33;8.85;;;4.22;;
60704;SDS011;46545;38.014;-7.874;2023-03-11T10:46:34;6.53;;;3.10;;
60704;SDS011;46545;38.014;-7.874;2023-03-11T10:48:34;4.63;;;2.45;;
60704;SDS011;46545;38.014;-7.874;2023-03-11T10:50:35;3.53;;;2.03;;
60704;SDS011;46545;38.014;-7.874;2023-03-11T10:52:41;2.72;;;1.88;;
60704;SDS011;46545;38.014;-7.874;2023-03-11T10:54:44;3.38;;;1.92;;
60704;SDS011;46545;38.014;-7.874;2023-03-11T10:56:49;2.35;;;1.48;;
60704;SDS011;46545;38.014;-7.874;2023-03-11T10:58:53;2.28;;;1.45;;
60704;SDS011;46545;38.014;-7.874;2023-03-11T11:01:12;5.75;;;1.27;;
60704;SDS011;46545;38.014;-7.874;2023-03-11T11:03:15;2.47;;;2.15;;
60704;SDS011;46545;38.014;-7.874;2023-03-11T11:07:31;5.90;;;1.90;;
60704;SDS011;46545;38.014;-7.874;2023-03-11T11:09:32;3.50;;;1.90;;
60704;SDS011;46545;38.014;-7.874;2023-03-11T11:11:32;5.53;;;2.60;;
60704;SDS011;46545;38.014;-7.874;2023-03-11T11:13:35;4.10;;;2.30;;
60704;SDS011;46545;38.014;-7.874;2023-03-11T11:15:36;2.05;;;1.08;;
60704;SDS011;46545;38.014;-7.874;2023-03-11T11:17:39;1.40;;;1.30;;
60704;SDS011;46545;38.014;-7.874;2023-03-11T11:19:44;1.27;;;1.17;;
60704;SDS011;46545;38.014;-7.874;2023-03-11T11:21:46;1.20;;;1.10;;
60704;SDS011;46545;38.014;-7.874;2023-03-11T11:23:51;1.80;;;1.10;;
60704;SDS011;46545;38.014;-7.874;2023-03-11T11:26:01;0.95;;;0.90;;
60704;SDS011;46545;38.014;-7.874;2023-03-11T11:28:17;0.90;;;0.80;;
60704;SDS011;46545;38.014;-7.874;2023-03-11T11:30:18;1.00;;;0.80;;
60704;SDS011;46545;38.014;-7.874;2023-03-11T11:32:24;2.33;;;0.85;;
60704;SDS011;46545;38.014;-7.874;2023-03-11T11:34:34;3.83;;;1.10;;
60704;SDS011;46545;38.014;-7.874;2023-03-11T11:36:34;1.40;;;1.30;;
60704;SDS011;46545;38.014;-7.874;2023-03-11T11:38:36;1.08;;;0.90;;
60704;SDS011;46545;38.014;-7.874;2023-03-11T11:40:36;3.13;;;1.10;;
60704;SDS011;46545;38.014;-7.874;2023-03-11T11:42:37;1.17;;;0.95;;
60704;SDS011;46545;38.014;-7.874;2023-03-11T11:44:39;3.33;;;0.90;;
60704;SDS011;46545;38.014;-7.874;2023-03-11T11:46:45;1.50;;;0.95;;
60704;SDS011;46545;38.014;-7.874;2023-03-11T11:49:01;0.82;;;0.80;;
60704;SDS011;46545;38.014;-7.874;2023-03-11T11:51:07;2.22;;;1.15;;
60704;SDS011;46545;38.014;-7.874;2023-03-11T11:53:18;1.17;;;1.10;;
60704;SDS011;46545;38.014;-7.874;2023-03-11T11:55:26;1.05;;;0.70;;
60704;SDS011;46545;38.014;-7.874;2023-03-11T11:57:28;2.33;;;0.90;;
60704;SDS011;46545;38.014;-7.874;2023-03-11T11:59:28;2.47;;;2.17;;
60704;SDS011;46545;38.014;-7.874;2023-03-11T12:01:41;2.00;;;1.10;;
60704;SDS011;46545;38.014;-7.874;2023-03-11T12:11:56;3.40;;;0.80;;
60704;SDS011;46545;38.014;-7.874;2023-03-11T12:16:04;0.85;;;0.82;;
60704;SDS011;46545;38.014;-7.874;2023-03-11T12:18:12;1.00;;;0.82;;
60704;SDS011;46545;38.014;-7.874;2023-03-11T12:26:35;1.90;;;1.02;;
60704;SDS011;46545;38.014;-7.874;2023-03-11T12:30:41;2.42;;;1.70;;
60704;SDS011;46545;38.014;-7.874;2023-03-11T12:32:46;3.08;;;1.38;;
60704;SDS011;46545;38.014;-7.874;2023-03-11T12:34:48;2.67;;;1.15;;
60704;SDS011;46545;38.014;-7.874;2023-03-11T12:36:48;1.50;;;0.98;;
60704;SDS011;46545;38.014;-7.874;2023-03-11T12:38:49;2.03;;;1.45;;
60704;SDS011;46545;38.014;-7.874;2023-03-11T12:40:57;1.20;;;1.10;;
60704;SDS011;46545;38.014;-7.874;2023-03-11T12:43:00;1.20;;;1.10;;
60704;SDS011;46545;38.014;-7.874;2023-03-11T12:45:39;5.72;;;1.58;;